sensor_id;sensor_type;location;lat;lon;timestamp;temperature;humidity
85164;DHT22;75530;49.300;6.846;2024-01-16T00:01:35;29.90;99.90
85164;DHT22;75530;49.300;6.846;2024-01-16T00:04:38;29.40;99.90
85164;DHT22;75530;49.300;6.846;2024-01-16T00:07:40;28.90;99.90
85164;DHT22;75530;49.300;6.846;2024-01-16T00:10:41;28.50;99.90
85164;DHT22;75530;49.300;6.846;2024-01-16T00:13:41;28.10;99.90
85164;DHT22;75530;49.300;6.846;2024-01-16T00:16:43;27.90;99.90
85164;DHT22;75530;49.300;6.846;2024-01-16T00:19:44;34.30;99.90
85164;DHT22;75530;49.300;6.846;2024-01-16T00:22:44;40.20;99.90
85164;DHT22;75530;49.300;6.846;2024-01-16T00:25:45;37.30;99.90
85164;DHT22;75530;49.300;6.846;2024-01-16T00:28:45;36.10;99.90
85164;DHT22;75530;49.300;6.846;2024-01-16T00:31:45;35.20;99.90
85164;DHT22;75530;49.300;6.846;2024-01-16T00:34:46;34.30;99.90
85164;DHT22;75530;49.300;6.846;2024-01-16T00:37:46;33.40;99.90
85164;DHT22;75530;49.300;6.846;2024-01-16T00:40:47;32.70;99.90
85164;DHT22;75530;49.300;6.846;2024-01-16T00:43:47;32.00;99.90
85164;DHT22;75530;49.300;6.846;2024-01-16T00:46:48;31.30;99.90
85164;DHT22;75530;49.300;6.846;2024-01-16T00:49:48;30.70;99.90
85164;DHT22;75530;49.300;6.846;2024-01-16T00:52:49;30.10;99.90
85164;DHT22;75530;49.300;6.846;2024-01-16T00:55:49;29.60;99.90
85164;DHT22;75530;49.300;6.846;2024-01-16T00:58:50;29.00;99.90
85164;DHT22;75530;49.300;6.846;2024-01-16T01:01:51;28.50;99.90
85164;DHT22;75530;49.300;6.846;2024-01-16T01:04:52;28.10;99.90
85164;DHT22;75530;49.300;6.846;2024-01-16T01:07:52;28.40;99.90
85164;DHT22;75530;49.300;6.846;2024-01-16T01:10:53;35.60;99.90
85164;DHT22;75530;49.300;6.846;2024-01-16T01:13:53;39.90;99.90
85164;DHT22;75530;49.300;6.846;2024-01-16T01:16:54;37.20;99.90
85164;DHT22;75530;49.300;6.846;2024-01-16T01:19:54;36.00;99.90
85164;DHT22;75530;49.300;6.846;2024-01-16T01:22:55;35.10;99.90
85164;DHT22;75530;49.300;6.846;2024-01-16T01:25:55;34.20;99.90
85164;DHT22;75530;49.300;6.846;2024-01-16T01:28:55;33.40;99.90
85164;DHT22;75530;49.300;6.846;2024-01-16T01:31:56;32.70;99.90
85164;DHT22;75530;49.300;6.846;2024-01-16T01:34:56;32.00;99.90
85164;DHT22;75530;49.300;6.846;2024-01-16T01:37:57;31.30;99.90
85164;DHT22;75530;49.300;6.846;2024-01-16T01:40:57;30.70;99.90
85164;DHT22;75530;49.300;6.846;2024-01-16T01:43:58;30.10;99.90
85164;DHT22;75530;49.300;6.846;2024-01-16T01:46:58;29.60;99.90
85164;DHT22;75530;49.300;6.846;2024-01-16T01:49:59;29.00;99.90
85164;DHT22;75530;49.300;6.846;2024-01-16T01:52:59;28.60;99.90
85164;DHT22;75530;49.300;6.846;2024-01-16T01:56:01;28.10;99.90
85164;DHT22;75530;49.300;6.846;2024-01-16T01:59:03;27.80;99.90
85164;DHT22;75530;49.300;6.846;2024-01-16T02:02:03;33.90;99.90
85164;DHT22;75530;49.300;6.846;2024-01-16T02:05:05;40.30;99.90
85164;DHT22;75530;49.300;6.846;2024-01-16T02:08:05;37.20;99.90
85164;DHT22;75530;49.300;6.846;2024-01-16T02:11:06;35.80;99.90
85164;DHT22;75530;49.300;6.846;2024-01-16T02:14:06;34.90;99.90
85164;DHT22;75530;49.300;6.846;2024-01-16T02:17:07;34.10;99.90
85164;DHT22;75530;49.300;6.846;2024-01-16T02:20:07;33.40;99.90
85164;DHT22;75530;49.300;6.846;2024-01-16T02:23:08;32.60;99.90
85164;DHT22;75530;49.300;6.846;2024-01-16T02:26:10;32.00;99.90
85164;DHT22;75530;49.300;6.846;2024-01-16T02:29:10;31.30;99.90
85164;DHT22;75530;49.300;6.846;2024-01-16T02:32:11;30.60;99.90
85164;DHT22;75530;49.300;6.846;2024-01-16T02:35:12;30.10;99.90
85164;DHT22;75530;49.300;6.846;2024-01-16T02:38:13;29.50;99.90
85164;DHT22;75530;49.300;6.846;2024-01-16T02:41:14;28.90;99.90
85164;DHT22;75530;49.300;6.846;2024-01-16T02:44:16;28.50;99.90
85164;DHT22;75530;49.300;6.846;2024-01-16T02:47:16;28.00;99.90
85164;DHT22;75530;49.300;6.846;2024-01-16T02:50:17;28.10;99.90
85164;DHT22;75530;49.300;6.846;2024-01-16T02:53:17;34.90;99.90
85164;DHT22;75530;49.300;6.846;2024-01-16T02:56:17;39.90;99.90
85164;DHT22;75530;49.300;6.846;2024-01-16T02:59:18;36.90;99.90
85164;DHT22;75530;49.300;6.846;2024-01-16T03:02:18;35.60;99.90
85164;DHT22;75530;49.300;6.846;2024-01-16T03:05:19;34.80;99.90
85164;DHT22;75530;49.300;6.846;2024-01-16T03:08:19;34.00;99.90
85164;DHT22;75530;49.300;6.846;2024-01-16T03:11:20;33.20;99.90
85164;DHT22;75530;49.300;6.846;2024-01-16T03:14:20;32.50;99.90
85164;DHT22;75530;49.300;6.846;2024-01-16T03:17:21;31.80;99.90
85164;DHT22;75530;49.300;6.846;2024-01-16T03:20:21;31.20;99.90
85164;DHT22;75530;49.300;6.846;2024-01-16T03:23:23;30.60;99.90
85164;DHT22;75530;49.300;6.846;2024-01-16T03:26:23;30.00;99.90
85164;DHT22;75530;49.300;6.846;2024-01-16T03:29:24;29.40;99.90
85164;DHT22;75530;49.300;6.846;2024-01-16T03:32:24;28.90;99.90
85164;DHT22;75530;49.300;6.846;2024-01-16T03:35:25;28.40;99.90
85164;DHT22;75530;49.300;6.846;2024-01-16T03:38:25;28.00;99.90
85164;DHT22;75530;49.300;6.846;2024-01-16T03:41:26;28.70;99.90
85164;DHT22;75530;49.300;6.846;2024-01-16T03:44:26;36.40;99.90
85164;DHT22;75530;49.300;6.846;2024-01-16T03:47:26;39.60;99.90
85164;DHT22;75530;49.300;6.846;2024-01-16T03:50:27;36.80;99.90
85164;DHT22;75530;49.300;6.846;2024-01-16T03:53:27;35.70;99.90
85164;DHT22;75530;49.300;6.846;2024-01-16T03:56:28;34.80;99.90
85164;DHT22;75530;49.300;6.846;2024-01-16T03:59:29;34.00;99.90
85164;DHT22;75530;49.300;6.846;2024-01-16T04:02:29;33.30;99.90
85164;DHT22;75530;49.300;6.846;2024-01-16T04:05:30;32.60;99.90
85164;DHT22;75530;49.300;6.846;2024-01-16T04:08:30;31.90;99.90
85164;DHT22;75530;49.300;6.846;2024-01-16T04:11:30;31.20;99.90
85164;DHT22;75530;49.300;6.846;2024-01-16T04:14:31;30.60;99.90
85164;DHT22;75530;49.300;6.846;2024-01-16T04:17:31;30.00;99.90
85164;DHT22;75530;49.300;6.846;2024-01-16T04:20:32;29.40;99.90
85164;DHT22;75530;49.300;6.846;2024-01-16T04:23:32;28.90;99.90
85164;DHT22;75530;49.300;6.846;2024-01-16T04:26:35;28.40;99.90
85164;DHT22;75530;49.300;6.846;2024-01-16T04:29:36;28.00;99.90
85164;DHT22;75530;49.300;6.846;2024-01-16T04:32:36;31.70;99.90
85164;DHT22;75530;49.300;6.846;2024-01-16T04:35:36;40.10;99.90
85164;DHT22;75530;49.300;6.846;2024-01-16T04:38:37;39.20;99.90
85164;DHT22;75530;49.300;6.846;2024-01-16T04:41:37;38.00;99.90
85164;DHT22;75530;49.300;6.846;2024-01-16T04:44:38;45.00;99.90
85164;DHT22;75530;49.300;6.846;2024-01-16T04:47:38;54.60;99.90
85164;DHT22;75530;49.300;6.846;2024-01-16T04:50:39;56.20;99.90
85164;DHT22;75530;49.300;6.846;2024-01-16T04:53:40;53.40;99.90
85164;DHT22;75530;49.300;6.846;2024-01-16T04:56:40;51.60;99.90
85164;DHT22;75530;49.300;6.846;2024-01-16T04:59:41;55.90;99.90
85164;DHT22;75530;49.300;6.846;2024-01-16T05:02:42;56.20;99.90
85164;DHT22;75530;49.300;6.846;2024-01-16T05:05:43;53.70;99.90
85164;DHT22;75530;49.300;6.846;2024-01-16T05:08:43;51.60;99.90
85164;DHT22;75530;49.300;6.846;2024-01-16T05:11:44;55.20;99.90
85164;DHT22;75530;49.300;6.846;2024-01-16T05:14:44;56.40;99.90
85164;DHT22;75530;49.300;6.846;2024-01-16T05:17:44;54.70;99.90
85164;DHT22;75530;49.300;6.846;2024-01-16T05:20:45;52.30;99.90
85164;DHT22;75530;49.300;6.846;2024-01-16T05:23:45;51.70;99.90
85164;DHT22;75530;49.300;6.846;2024-01-16T05:26:46;56.30;99.90
85164;DHT22;75530;49.300;6.846;2024-01-16T05:29:47;55.70;99.90
85164;DHT22;75530;49.300;6.846;2024-01-16T05:32:47;52.60;99.90
85164;DHT22;75530;49.300;6.846;2024-01-16T05:35:48;51.20;99.90
85164;DHT22;75530;49.300;6.846;2024-01-16T05:38:48;55.80;99.90
85164;DHT22;75530;49.300;6.846;2024-01-16T05:41:50;56.20;99.90
85164;DHT22;75530;49.300;6.846;2024-01-16T05:44:50;47.60;99.90
85164;DHT22;75530;49.300;6.846;2024-01-16T05:47:53;39.30;99.90
85164;DHT22;75530;49.300;6.846;2024-01-16T05:50:54;43.80;99.90
85164;DHT22;75530;49.300;6.846;2024-01-16T05:53:54;42.60;99.90
85164;DHT22;75530;49.300;6.846;2024-01-16T05:56:55;42.50;99.90
85164;DHT22;75530;49.300;6.846;2024-01-16T05:59:55;44.80;99.90
85164;DHT22;75530;49.300;6.846;2024-01-16T06:02:56;42.40;99.90
85164;DHT22;75530;49.300;6.846;2024-01-16T06:05:56;44.20;99.90
85164;DHT22;75530;49.300;6.846;2024-01-16T06:08:57;44.30;99.90
85164;DHT22;75530;49.300;6.846;2024-01-16T06:11:59;42.00;99.90
85164;DHT22;75530;49.300;6.846;2024-01-16T06:14:59;45.20;99.90
85164;DHT22;75530;49.300;6.846;2024-01-16T06:18:00;43.90;99.90
85164;DHT22;75530;49.300;6.846;2024-01-16T06:21:00;42.00;99.90
85164;DHT22;75530;49.300;6.846;2024-01-16T06:24:01;45.60;99.90
85164;DHT22;75530;49.300;6.846;2024-01-16T06:27:02;43.80;99.90
85164;DHT22;75530;49.300;6.846;2024-01-16T06:30:04;42.30;99.90
85164;DHT22;75530;49.300;6.846;2024-01-16T06:33:04;45.80;99.90
85164;DHT22;75530;49.300;6.846;2024-01-16T06:36:05;43.60;99.90
85164;DHT22;75530;49.300;6.846;2024-01-16T06:39:06;42.70;99.90
85164;DHT22;75530;49.300;6.846;2024-01-16T06:42:06;45.80;99.90
85164;DHT22;75530;49.300;6.846;2024-01-16T06:45:07;43.50;99.90
85164;DHT22;75530;49.300;6.846;2024-01-16T06:48:07;43.40;99.90
85164;DHT22;75530;49.300;6.846;2024-01-16T06:51:08;45.90;99.90
85164;DHT22;75530;49.300;6.846;2024-01-16T06:54:10;43.40;99.90
85164;DHT22;75530;49.300;6.846;2024-01-16T06:57:11;43.90;99.90
85164;DHT22;75530;49.300;6.846;2024-01-16T07:00:11;45.90;99.90
85164;DHT22;75530;49.300;6.846;2024-01-16T07:03:12;43.40;99.90
85164;DHT22;75530;49.300;6.846;2024-01-16T07:06:13;44.30;99.90
85164;DHT22;75530;49.300;6.846;2024-01-16T07:09:14;46.00;99.90
85164;DHT22;75530;49.300;6.846;2024-01-16T07:12:16;43.40;99.90
85164;DHT22;75530;49.300;6.846;2024-01-16T07:15:17;44.90;99.90
85164;DHT22;75530;49.300;6.846;2024-01-16T07:18:17;46.00;99.90
85164;DHT22;75530;49.300;6.846;2024-01-16T07:21:18;43.40;99.90
85164;DHT22;75530;49.300;6.846;2024-01-16T07:24:19;45.40;99.90
85164;DHT22;75530;49.300;6.846;2024-01-16T07:27:19;46.00;99.90
85164;DHT22;75530;49.300;6.846;2024-01-16T07:30:20;43.30;99.90
85164;DHT22;75530;49.300;6.846;2024-01-16T07:33:20;46.00;99.90
85164;DHT22;75530;49.300;6.846;2024-01-16T07:36:21;45.70;99.90
85164;DHT22;75530;49.300;6.846;2024-01-16T07:39:21;43.00;99.90
85164;DHT22;75530;49.300;6.846;2024-01-16T07:42:23;46.50;99.90
85164;DHT22;75530;49.300;6.846;2024-01-16T07:45:24;45.50;99.90
85164;DHT22;75530;49.300;6.846;2024-01-16T07:48:24;42.90;99.90
85164;DHT22;75530;49.300;6.846;2024-01-16T07:51:25;46.90;99.90
85164;DHT22;75530;49.300;6.846;2024-01-16T07:54:25;45.20;99.90
85164;DHT22;75530;49.300;6.846;2024-01-16T07:57:26;43.10;99.90
85164;DHT22;75530;49.300;6.846;2024-01-16T08:00:26;47.30;99.90
85164;DHT22;75530;49.300;6.846;2024-01-16T08:03:27;45.20;99.90
85164;DHT22;75530;49.300;6.846;2024-01-16T08:06:28;43.30;99.90
85164;DHT22;75530;49.300;6.846;2024-01-16T08:09:28;47.80;99.90
85164;DHT22;75530;49.300;6.846;2024-01-16T08:12:29;45.70;99.90
85164;DHT22;75530;49.300;6.846;2024-01-16T08:15:29;43.20;99.90
85164;DHT22;75530;49.300;6.846;2024-01-16T08:18:30;47.60;99.90
85164;DHT22;75530;49.300;6.846;2024-01-16T08:21:31;46.30;99.90
85164;DHT22;75530;49.300;6.846;2024-01-16T08:24:32;43.50;99.90
85164;DHT22;75530;49.300;6.846;2024-01-16T08:27:32;46.90;99.90
85164;DHT22;75530;49.300;6.846;2024-01-16T08:30:33;47.30;99.90
85164;DHT22;75530;49.300;6.846;2024-01-16T08:33:33;44.10;99.90
85164;DHT22;75530;49.300;6.846;2024-01-16T08:36:34;45.00;99.90
85164;DHT22;75530;49.300;6.846;2024-01-16T08:39:34;48.00;99.90
85164;DHT22;75530;49.300;6.846;2024-01-16T08:42:35;45.00;99.90
85164;DHT22;75530;49.300;6.846;2024-01-16T08:45:35;43.20;99.90
85164;DHT22;75530;49.300;6.846;2024-01-16T08:48:36;47.70;99.90
85164;DHT22;75530;49.300;6.846;2024-01-16T08:51:36;45.90;99.90
85164;DHT22;75530;49.300;6.846;2024-01-16T08:54:37;43.10;99.90
85164;DHT22;75530;49.300;6.846;2024-01-16T08:57:37;42.30;99.90
85164;DHT22;75530;49.300;6.846;2024-01-16T09:00:38;43.70;99.90
85164;DHT22;75530;49.300;6.846;2024-01-16T09:03:38;53.00;99.90
85164;DHT22;75530;49.300;6.846;2024-01-16T09:06:38;56.00;99.90
85164;DHT22;75530;49.300;6.846;2024-01-16T09:09:39;53.80;99.90
85164;DHT22;75530;49.300;6.846;2024-01-16T09:12:41;51.80;99.90
85164;DHT22;75530;49.300;6.846;2024-01-16T09:15:42;55.80;99.90
85164;DHT22;75530;49.300;6.846;2024-01-16T09:18:43;56.10;99.90
85164;DHT22;75530;49.300;6.846;2024-01-16T09:21:43;53.40;99.90
85164;DHT22;75530;49.300;6.846;2024-01-16T09:24:43;51.60;99.90
85164;DHT22;75530;49.300;6.846;2024-01-16T09:27:44;55.80;99.90
85164;DHT22;75530;49.300;6.846;2024-01-16T09:30:44;56.30;99.90
85164;DHT22;75530;49.300;6.846;2024-01-16T09:33:45;53.90;99.90
85164;DHT22;75530;49.300;6.846;2024-01-16T09:36:45;51.50;99.90
85164;DHT22;75530;49.300;6.846;2024-01-16T09:39:46;54.20;99.90
85164;DHT22;75530;49.300;6.846;2024-01-16T09:42:47;57.20;99.90
85164;DHT22;75530;49.300;6.846;2024-01-16T09:45:47;46.20;99.90
85164;DHT22;75530;49.300;6.846;2024-01-16T09:48:49;39.80;99.90
85164;DHT22;75530;49.300;6.846;2024-01-16T09:51:51;45.40;99.90
85164;DHT22;75530;49.300;6.846;2024-01-16T09:54:51;44.00;99.90
85164;DHT22;75530;49.300;6.846;2024-01-16T09:57:52;42.30;99.90
85164;DHT22;75530;49.300;6.846;2024-01-16T10:00:56;46.90;99.90
85164;DHT22;75530;49.300;6.846;2024-01-16T10:03:56;45.20;99.90
85164;DHT22;75530;49.300;6.846;2024-01-16T10:06:58;43.10;99.90
85164;DHT22;75530;49.300;6.846;2024-01-16T10:10:00;41.90;99.90
85164;DHT22;75530;49.300;6.846;2024-01-16T10:13:00;45.80;99.90
85164;DHT22;75530;49.300;6.846;2024-01-16T10:16:01;47.00;99.90
85164;DHT22;75530;49.300;6.846;2024-01-16T10:19:04;44.60;99.90
85164;DHT22;75530;49.300;6.846;2024-01-16T10:22:05;43.00;99.90
85164;DHT22;75530;49.300;6.846;2024-01-16T10:25:07;41.90;99.90
85164;DHT22;75530;49.300;6.846;2024-01-16T10:28:08;41.00;99.90
85164;DHT22;75530;49.300;6.846;2024-01-16T10:31:12;40.20;99.90
85164;DHT22;75530;49.300;6.846;2024-01-16T10:34:20;44.50;99.90
85164;DHT22;75530;49.300;6.846;2024-01-16T10:37:21;46.00;99.90
85164;DHT22;75530;49.300;6.846;2024-01-16T10:40:22;43.50;99.90
85164;DHT22;75530;49.300;6.846;2024-01-16T10:43:25;41.80;99.90
85164;DHT22;75530;49.300;6.846;2024-01-16T10:46:25;40.70;99.90
85164;DHT22;75530;49.300;6.846;2024-01-16T10:49:26;39.80;99.90
85164;DHT22;75530;49.300;6.846;2024-01-16T10:52:27;44.10;99.90
85164;DHT22;75530;49.300;6.846;2024-01-16T10:55:28;45.70;99.90
85164;DHT22;75530;49.300;6.846;2024-01-16T10:58:30;43.20;99.90
85164;DHT22;75530;49.300;6.846;2024-01-16T11:01:31;41.40;99.90
85164;DHT22;75530;49.300;6.846;2024-01-16T11:04:32;40.30;99.90
85164;DHT22;75530;49.300;6.846;2024-01-16T11:07:34;44.10;99.90
85164;DHT22;75530;49.300;6.846;2024-01-16T11:10:36;46.00;99.90
85164;DHT22;75530;49.300;6.846;2024-01-16T11:13:36;43.60;99.90
85164;DHT22;75530;49.300;6.846;2024-01-16T11:16:37;41.90;99.90
85164;DHT22;75530;49.300;6.846;2024-01-16T11:19:38;40.90;99.90
85164;DHT22;75530;49.300;6.846;2024-01-16T11:22:38;42.70;99.90
85164;DHT22;75530;49.300;6.846;2024-01-16T11:25:39;46.30;99.90
85164;DHT22;75530;49.300;6.846;2024-01-16T11:28:40;44.80;99.90
85164;DHT22;75530;49.300;6.846;2024-01-16T11:31:40;42.70;99.90
85164;DHT22;75530;49.300;6.846;2024-01-16T11:37:44;40.60;99.90
85164;DHT22;75530;49.300;6.846;2024-01-16T11:40:45;43.20;99.90
85164;DHT22;75530;49.300;6.846;2024-01-16T11:43:46;46.30;99.90
85164;DHT22;75530;49.300;6.846;2024-01-16T11:46:59;44.50;99.90
85164;DHT22;75530;49.300;6.846;2024-01-16T11:50:10;42.30;99.90
85164;DHT22;75530;49.300;6.846;2024-01-16T11:53:11;41.10;99.90
85164;DHT22;75530;49.300;6.846;2024-01-16T11:56:39;40.30;99.90
85164;DHT22;75530;49.300;6.846;2024-01-16T11:59:57;45.80;99.90
85164;DHT22;75530;49.300;6.846;2024-01-16T12:02:57;45.80;99.90
85164;DHT22;75530;49.300;6.846;2024-01-16T12:06:00;43.10;99.90
85164;DHT22;75530;49.300;6.846;2024-01-16T12:09:14;41.80;99.90
85164;DHT22;75530;49.300;6.846;2024-01-16T12:12:15;40.80;99.90
85164;DHT22;75530;49.300;6.846;2024-01-16T12:15:16;40.00;99.90
85164;DHT22;75530;49.300;6.846;2024-01-16T12:18:20;45.00;99.90
85164;DHT22;75530;49.300;6.846;2024-01-16T12:21:20;46.20;99.90
85164;DHT22;75530;49.300;6.846;2024-01-16T12:24:21;43.70;99.90
85164;DHT22;75530;49.300;6.846;2024-01-16T12:27:21;42.10;99.90
85164;DHT22;75530;49.300;6.846;2024-01-16T12:30:23;41.20;99.90
85164;DHT22;75530;49.300;6.846;2024-01-16T12:33:24;40.20;99.90
85164;DHT22;75530;49.300;6.846;2024-01-16T12:36:24;41.20;99.90
85164;DHT22;75530;49.300;6.846;2024-01-16T12:39:25;45.60;99.90
85164;DHT22;75530;49.300;6.846;2024-01-16T12:42:25;44.20;99.90
85164;DHT22;75530;49.300;6.846;2024-01-16T12:45:26;42.10;99.90
85164;DHT22;75530;49.300;6.846;2024-01-16T12:48:28;40.90;99.90
85164;DHT22;75530;49.300;6.846;2024-01-16T12:51:29;40.10;99.90
85164;DHT22;75530;49.300;6.846;2024-01-16T12:54:29;41.80;99.90
85164;DHT22;75530;49.300;6.846;2024-01-16T12:57:30;45.40;99.90
85164;DHT22;75530;49.300;6.846;2024-01-16T13:00:30;43.60;99.90
85164;DHT22;75530;49.300;6.846;2024-01-16T13:03:31;41.40;99.90
85164;DHT22;75530;49.300;6.846;2024-01-16T13:06:31;39.50;99.90
85164;DHT22;75530;49.300;6.846;2024-01-16T13:09:32;42.10;99.90
85164;DHT22;75530;49.300;6.846;2024-01-16T13:12:32;41.80;99.90
85164;DHT22;75530;49.300;6.846;2024-01-16T13:15:33;39.60;99.90
85164;DHT22;75530;49.300;6.846;2024-01-16T13:18:34;43.60;99.90
85164;DHT22;75530;49.300;6.846;2024-01-16T13:21:35;41.60;99.90
85164;DHT22;75530;49.300;6.846;2024-01-16T13:24:36;40.90;99.90
85164;DHT22;75530;49.300;6.846;2024-01-16T13:27:36;43.40;99.90
85164;DHT22;75530;49.300;6.846;2024-01-16T13:30:37;41.60;99.90
85164;DHT22;75530;49.300;6.846;2024-01-16T13:33:37;40.30;99.90
85164;DHT22;75530;49.300;6.846;2024-01-16T13:36:38;40.50;99.90
85164;DHT22;75530;49.300;6.846;2024-01-16T13:39:38;43.20;99.90
85164;DHT22;75530;49.300;6.846;2024-01-16T13:42:39;41.40;99.90
85164;DHT22;75530;49.300;6.846;2024-01-16T13:45:40;40.50;99.90
85164;DHT22;75530;49.300;6.846;2024-01-16T13:48:41;40.10;99.90
85164;DHT22;75530;49.300;6.846;2024-01-16T13:51:43;44.20;99.90
85164;DHT22;75530;49.300;6.846;2024-01-16T13:54:44;43.00;99.90
85164;DHT22;75530;49.300;6.846;2024-01-16T13:57:45;41.70;99.90
85164;DHT22;75530;49.300;6.846;2024-01-16T14:00:45;40.90;99.90
85164;DHT22;75530;49.300;6.846;2024-01-16T14:03:46;40.10;99.90
85164;DHT22;75530;49.300;6.846;2024-01-16T14:06:47;39.40;99.90
85164;DHT22;75530;49.300;6.846;2024-01-16T14:09:48;42.30;99.90
85164;DHT22;75530;49.300;6.846;2024-01-16T14:12:49;43.80;99.90
85164;DHT22;75530;49.300;6.846;2024-01-16T14:15:50;42.20;99.90
85164;DHT22;75530;49.300;6.846;2024-01-16T14:18:50;41.10;99.90
85164;DHT22;75530;49.300;6.846;2024-01-16T14:21:51;40.30;99.90
85164;DHT22;75530;49.300;6.846;2024-01-16T14:24:52;39.70;99.90
85164;DHT22;75530;49.300;6.846;2024-01-16T14:27:56;41.90;99.90
85164;DHT22;75530;49.300;6.846;2024-01-16T14:31:00;44.20;99.90
85164;DHT22;75530;49.300;6.846;2024-01-16T14:34:01;42.30;99.90
85164;DHT22;75530;49.300;6.846;2024-01-16T14:37:01;41.10;99.90
85164;DHT22;75530;49.300;6.846;2024-01-16T14:40:03;40.40;99.90
85164;DHT22;75530;49.300;6.846;2024-01-16T14:43:06;39.70;99.90
85164;DHT22;75530;49.300;6.846;2024-01-16T14:46:07;42.60;99.90
85164;DHT22;75530;49.300;6.846;2024-01-16T14:49:10;44.00;99.90
85164;DHT22;75530;49.300;6.846;2024-01-16T14:52:12;41.90;99.90
85164;DHT22;75530;49.300;6.846;2024-01-16T14:55:12;40.60;99.90
85164;DHT22;75530;49.300;6.846;2024-01-16T14:58:13;39.70;99.90
85164;DHT22;75530;49.300;6.846;2024-01-16T15:01:13;38.90;99.90
85164;DHT22;75530;49.300;6.846;2024-01-16T15:04:14;38.00;99.90
85164;DHT22;75530;49.300;6.846;2024-01-16T15:07:15;42.00;99.90
85164;DHT22;75530;49.300;6.846;2024-01-16T15:10:15;42.90;99.90
85164;DHT22;75530;49.300;6.846;2024-01-16T15:13:17;40.70;99.90
85164;DHT22;75530;49.300;6.846;2024-01-16T15:16:17;39.40;99.90
85164;DHT22;75530;49.300;6.846;2024-01-16T15:19:18;39.70;99.90
85164;DHT22;75530;49.300;6.846;2024-01-16T15:22:19;44.00;99.90
85164;DHT22;75530;49.300;6.846;2024-01-16T15:25:19;42.20;99.90
85164;DHT22;75530;49.300;6.846;2024-01-16T15:28:23;40.50;99.90
85164;DHT22;75530;49.300;6.846;2024-01-16T15:31:24;40.90;99.90
85164;DHT22;75530;49.300;6.846;2024-01-16T15:34:24;44.60;99.90
85164;DHT22;75530;49.300;6.846;2024-01-16T15:37:25;42.70;99.90
85164;DHT22;75530;49.300;6.846;2024-01-16T15:40:26;41.10;99.90
85164;DHT22;75530;49.300;6.846;2024-01-16T15:43:26;40.70;99.90
85164;DHT22;75530;49.300;6.846;2024-01-16T15:46:27;45.00;99.90
85164;DHT22;75530;49.300;6.846;2024-01-16T15:49:28;43.50;99.90
85164;DHT22;75530;49.300;6.846;2024-01-16T15:52:29;41.70;99.90
85164;DHT22;75530;49.300;6.846;2024-01-16T15:55:29;42.30;99.90
85164;DHT22;75530;49.300;6.846;2024-01-16T15:58:29;45.70;99.90
85164;DHT22;75530;49.300;6.846;2024-01-16T16:01:32;43.70;99.90
85164;DHT22;75530;49.300;6.846;2024-01-16T16:04:32;42.00;99.90
85164;DHT22;75530;49.300;6.846;2024-01-16T16:07:33;41.40;99.90
85164;DHT22;75530;49.300;6.846;2024-01-16T16:10:33;45.80;99.90
85164;DHT22;75530;49.300;6.846;2024-01-16T16:13:36;44.40;99.90
85164;DHT22;75530;49.300;6.846;2024-01-16T16:16:36;42.50;99.90
85164;DHT22;75530;49.300;6.846;2024-01-16T16:19:37;42.00;99.90
85164;DHT22;75530;49.300;6.846;2024-01-16T16:22:37;46.20;99.90
85164;DHT22;75530;49.300;6.846;2024-01-16T16:25:40;44.40;99.90
85164;DHT22;75530;49.300;6.846;2024-01-16T16:28:44;42.10;99.90
85164;DHT22;75530;49.300;6.846;2024-01-16T16:31:45;45.10;99.90
85164;DHT22;75530;49.300;6.846;2024-01-16T16:34:46;45.00;99.90
85164;DHT22;75530;49.300;6.846;2024-01-16T16:37:46;42.70;99.90
85164;DHT22;75530;49.300;6.846;2024-01-16T16:40:47;44.90;99.90
85164;DHT22;75530;49.300;6.846;2024-01-16T16:43:48;45.80;99.90
85164;DHT22;75530;49.300;6.846;2024-01-16T16:46:48;43.70;99.90
85164;DHT22;75530;49.300;6.846;2024-01-16T16:49:48;42.40;99.90
85164;DHT22;75530;49.300;6.846;2024-01-16T16:52:49;45.30;99.90
85164;DHT22;75530;49.300;6.846;2024-01-16T16:55:49;45.90;99.90
85164;DHT22;75530;49.300;6.846;2024-01-16T16:58:51;43.70;99.90
85164;DHT22;75530;49.300;6.846;2024-01-16T17:01:51;42.60;99.90
85164;DHT22;75530;49.300;6.846;2024-01-16T17:04:54;46.90;99.90
85164;DHT22;75530;49.300;6.846;2024-01-16T17:07:54;45.80;99.90
85164;DHT22;75530;49.300;6.846;2024-01-16T17:10:54;43.80;99.90
85164;DHT22;75530;49.300;6.846;2024-01-16T17:13:55;43.10;99.90
85164;DHT22;75530;49.300;6.846;2024-01-16T17:16:56;47.50;99.90
85164;DHT22;75530;49.300;6.846;2024-01-16T17:19:56;46.10;99.90
85164;DHT22;75530;49.300;6.846;2024-01-16T17:22:56;43.90;99.90
85164;DHT22;75530;49.300;6.846;2024-01-16T17:25:57;43.40;99.90
85164;DHT22;75530;49.300;6.846;2024-01-16T17:28:58;47.70;99.90
85164;DHT22;75530;49.300;6.846;2024-01-16T17:31:59;46.20;99.90
85164;DHT22;75530;49.300;6.846;2024-01-16T17:35:00;44.00;99.90
85164;DHT22;75530;49.300;6.846;2024-01-16T17:38:01;44.40;99.90
85164;DHT22;75530;49.300;6.846;2024-01-16T17:41:02;48.10;99.90
85164;DHT22;75530;49.300;6.846;2024-01-16T17:44:04;46.10;99.90
85164;DHT22;75530;49.300;6.846;2024-01-16T17:47:05;43.90;99.90
85164;DHT22;75530;49.300;6.846;2024-01-16T17:50:05;45.20;99.90
85164;DHT22;75530;49.300;6.846;2024-01-16T17:53:09;48.30;99.90
85164;DHT22;75530;49.300;6.846;2024-01-16T17:56:10;46.10;99.90
85164;DHT22;75530;49.300;6.846;2024-01-16T17:59:13;44.10;99.90
85164;DHT22;75530;49.300;6.846;2024-01-16T18:02:14;45.10;99.90
85164;DHT22;75530;49.300;6.846;2024-01-16T18:05:14;48.60;99.90
85164;DHT22;75530;49.300;6.846;2024-01-16T18:08:16;46.60;99.90
85164;DHT22;75530;49.300;6.846;2024-01-16T18:11:17;44.30;99.90
85164;DHT22;75530;49.300;6.846;2024-01-16T18:14:18;44.70;99.90
85164;DHT22;75530;49.300;6.846;2024-01-16T18:17:18;48.60;99.90
85164;DHT22;75530;49.300;6.846;2024-01-16T18:20:19;46.90;99.90
85164;DHT22;75530;49.300;6.846;2024-01-16T18:23:22;44.50;99.90
85164;DHT22;75530;49.300;6.846;2024-01-16T18:26:22;44.20;99.90
85164;DHT22;75530;49.300;6.846;2024-01-16T18:29:23;48.50;99.90
85164;DHT22;75530;49.300;6.846;2024-01-16T18:32:24;47.30;99.90
85164;DHT22;75530;49.300;6.846;2024-01-16T18:35:24;43.40;99.90
85164;DHT22;75530;49.300;6.846;2024-01-16T18:38:28;45.00;99.90
85164;DHT22;75530;49.300;6.846;2024-01-16T18:41:29;47.50;99.90
85164;DHT22;75530;49.300;6.846;2024-01-16T18:44:29;45.80;99.90
85164;DHT22;75530;49.300;6.846;2024-01-16T18:47:30;44.50;99.90
85164;DHT22;75530;49.300;6.846;2024-01-16T18:50:31;43.50;99.90
85164;DHT22;75530;49.300;6.846;2024-01-16T18:53:33;46.70;99.90
85164;DHT22;75530;49.300;6.846;2024-01-16T18:56:33;46.90;99.90
85164;DHT22;75530;49.300;6.846;2024-01-16T18:59:34;45.30;99.90
85164;DHT22;75530;49.300;6.846;2024-01-16T19:02:34;44.00;99.90
85164;DHT22;75530;49.300;6.846;2024-01-16T19:05:35;44.20;99.90